createdAt,value
2018-07-23T00:02:03.569Z,99.90
2018-07-23T00:04:31.881Z,99.90
2018-07-23T00:07:00.689Z,99.90
2018-07-23T00:09:29.713Z,99.90
2018-07-23T00:11:58.102Z,99.90
2018-07-23T00:14:26.389Z,99.90
2018-07-23T00:16:54.742Z,99.90
2018-07-23T00:19:23.017Z,99.90
2018-07-23T00:21:51.260Z,99.90
2018-07-23T00:24:19.753Z,99.90
2018-07-23T00:26:48.418Z,99.90
2018-07-23T00:29:17.089Z,99.90
2018-07-23T00:31:45.361Z,99.90
2018-07-23T00:34:14.507Z,99.90
2018-07-23T00:36:43.221Z,99.90
2018-07-23T00:39:11.577Z,99.90
2018-07-23T00:41:39.830Z,99.90
2018-07-23T00:44:08.144Z,99.90
2018-07-23T00:46:36.410Z,99.90
2018-07-23T00:49:04.802Z,99.90
2018-07-23T00:51:33.787Z,99.90
2018-07-23T00:54:02.552Z,99.90
2018-07-23T00:56:30.927Z,99.90
2018-07-23T00:58:59.189Z,99.90
2018-07-23T01:01:27.521Z,99.90
2018-07-23T01:03:56.107Z,99.90
2018-07-23T01:06:24.451Z,99.90
2018-07-23T01:08:52.711Z,99.90
2018-07-23T01:11:20.978Z,99.90
2018-07-23T01:13:49.241Z,99.90
2018-07-23T01:16:17.473Z,99.90
2018-07-23T01:18:45.758Z,99.90
2018-07-23T01:21:15.035Z,99.90
2018-07-23T01:23:43.359Z,99.90
2018-07-23T01:26:11.595Z,99.90
2018-07-23T01:28:39.857Z,99.90
2018-07-23T01:31:08.809Z,99.90
2018-07-23T01:33:37.210Z,99.90
2018-07-23T01:36:05.556Z,99.90
2018-07-23T01:38:33.822Z,99.90
2018-07-23T01:41:02.093Z,99.90
2018-07-23T01:43:30.361Z,99.90
2018-07-23T01:45:59.585Z,99.90
2018-07-23T01:48:29.137Z,99.90
2018-07-23T01:50:57.475Z,99.90
2018-07-23T01:53:25.872Z,99.90
2018-07-23T01:55:54.274Z,99.90
2018-07-23T01:58:22.586Z,99.90
2018-07-23T02:00:51.196Z,99.90
2018-07-23T02:03:20.405Z,99.90
2018-07-23T02:05:49.234Z,99.90
2018-07-23T02:08:18.362Z,99.90
2018-07-23T02:10:47.381Z,99.90
2018-07-23T02:13:15.702Z,99.90
2018-07-23T02:15:43.970Z,99.90
2018-07-23T02:18:12.340Z,99.90
2018-07-23T02:20:40.570Z,99.90
2018-07-23T02:23:09.014Z,99.90
2018-07-23T02:25:37.281Z,99.90
2018-07-23T02:28:05.682Z,99.90
2018-07-23T02:30:34.666Z,99.90
2018-07-23T02:33:03.970Z,99.90
2018-07-23T02:35:32.390Z,99.90
2018-07-23T02:38:00.780Z,99.90
2018-07-23T02:40:29.043Z,99.90
2018-07-23T02:42:57.375Z,99.90
2018-07-23T02:45:25.698Z,99.90
2018-07-23T02:47:54.655Z,99.90
2018-07-23T02:50:22.951Z,99.90
2018-07-23T02:52:51.676Z,99.90
2018-07-23T02:55:20.014Z,99.90
2018-07-23T02:57:48.649Z,99.90
2018-07-23T03:00:16.987Z,99.90
2018-07-23T03:02:45.272Z,99.90
2018-07-23T03:05:13.541Z,99.90
2018-07-23T03:07:42.385Z,99.90
2018-07-23T03:10:11.825Z,99.90
2018-07-23T03:12:40.830Z,99.90
2018-07-23T03:15:09.566Z,99.90
2018-07-23T03:17:37.873Z,99.90
2018-07-23T03:20:06.242Z,99.90
2018-07-23T03:22:34.497Z,99.90
2018-07-23T03:25:02.797Z,99.90
2018-07-23T03:27:31.055Z,99.90
2018-07-23T03:30:00.156Z,99.90
2018-07-23T03:32:29.278Z,99.90
2018-07-23T03:34:58.222Z,99.90
2018-07-23T03:37:27.255Z,99.90
2018-07-23T03:39:55.543Z,99.90
2018-07-23T03:42:23.864Z,99.90
2018-07-23T03:44:52.549Z,99.90
2018-07-23T03:47:21.373Z,99.90
2018-07-23T03:49:50.154Z,99.90
2018-07-23T03:52:18.443Z,99.90
2018-07-23T03:54:46.733Z,99.90
2018-07-23T03:57:15.006Z,99.90
2018-07-23T03:59:43.370Z,99.90
2018-07-23T04:02:11.842Z,99.90
2018-07-23T04:04:40.110Z,99.90
2018-07-23T04:07:08.861Z,99.90
2018-07-23T04:09:37.136Z,99.90
2018-07-23T04:12:06.242Z,99.90
2018-07-23T04:14:34.562Z,99.90
2018-07-23T04:17:02.825Z,99.90
2018-07-23T04:21:59.216Z,99.90
2018-07-23T04:24:27.636Z,99.90
2018-07-23T04:26:55.928Z,99.90
2018-07-23T04:29:24.237Z,99.90
2018-07-23T04:31:52.514Z,99.90
2018-07-23T04:34:20.806Z,99.90
2018-07-23T04:36:49.640Z,99.90
2018-07-23T04:39:18.267Z,99.90
2018-07-23T04:41:46.530Z,99.90
2018-07-23T04:46:43.725Z,99.90
2018-07-23T04:49:12.040Z,99.90
2018-07-23T04:51:40.346Z,99.90
2018-07-23T04:54:08.630Z,99.90
2018-07-23T04:56:37.504Z,99.90
2018-07-23T04:59:05.794Z,99.90
2018-07-23T05:04:02.157Z,99.90
2018-07-23T05:06:30.437Z,99.90
2018-07-23T05:08:58.735Z,99.90
2018-07-23T05:11:27.547Z,99.90
2018-07-23T05:16:24.489Z,99.90
2018-07-23T05:18:52.730Z,99.90
2018-07-23T05:21:21.018Z,99.90
2018-07-23T05:23:49.814Z,99.90
2018-07-23T05:26:18.326Z,99.90
2018-07-23T05:28:47.035Z,99.90
2018-07-23T05:31:15.496Z,99.90
2018-07-23T05:33:43.790Z,99.90
2018-07-23T05:36:12.081Z,99.90
2018-07-23T05:38:40.475Z,99.90
2018-07-23T05:41:09.224Z,99.90
2018-07-23T05:43:37.830Z,99.90
2018-07-23T05:46:06.274Z,99.90
2018-07-23T05:48:34.567Z,99.90
2018-07-23T05:51:02.926Z,99.90
2018-07-23T05:53:31.277Z,99.90
2018-07-23T05:55:59.549Z,99.90
2018-07-23T05:58:27.810Z,99.90
2018-07-23T06:00:56.153Z,99.90
2018-07-23T06:03:24.486Z,99.90
2018-07-23T06:05:52.774Z,99.90
2018-07-23T06:08:21.069Z,99.90
2018-07-23T06:10:49.413Z,99.90
2018-07-23T06:13:18.284Z,99.90
2018-07-23T06:15:47.021Z,99.90
2018-07-23T06:20:43.969Z,99.90
2018-07-23T06:23:12.805Z,99.90
2018-07-23T06:25:41.603Z,99.90
2018-07-23T06:28:10.403Z,99.90
2018-07-23T06:30:39.233Z,99.90
2018-07-23T06:33:07.734Z,99.90
2018-07-23T06:35:36.036Z,99.90
2018-07-23T06:38:04.450Z,99.90
2018-07-23T06:40:32.743Z,99.90
2018-07-23T06:43:01.002Z,99.90
2018-07-23T06:45:29.505Z,99.90
2018-07-23T06:47:59.202Z,99.90
2018-07-23T06:50:27.648Z,99.90
2018-07-23T06:52:55.917Z,99.90
2018-07-23T06:55:24.361Z,99.90
2018-07-23T06:57:53.029Z,99.90
2018-07-23T07:00:21.884Z,99.90
2018-07-23T07:02:51.802Z,99.90
2018-07-23T07:07:49.288Z,99.90
2018-07-23T07:10:17.697Z,99.90
2018-07-23T07:12:45.949Z,99.90
2018-07-23T07:15:14.640Z,99.90
2018-07-23T07:17:44.537Z,99.90
2018-07-23T07:20:12.907Z,99.90
2018-07-23T07:22:41.238Z,99.90
2018-07-23T07:25:10.455Z,99.90
2018-07-23T07:27:39.781Z,99.90
2018-07-23T07:30:08.786Z,99.90
2018-07-23T07:32:37.098Z,99.90
2018-07-23T07:35:05.472Z,99.90
2018-07-23T07:37:33.746Z,99.90
2018-07-23T07:40:02.030Z,99.90
2018-07-23T07:42:30.331Z,99.90
2018-07-23T07:44:58.729Z,99.90
2018-07-23T07:47:27.182Z,99.90
2018-07-23T07:49:55.484Z,99.90
2018-07-23T07:52:23.770Z,99.90
2018-07-23T07:54:52.341Z,99.90
2018-07-23T07:57:20.668Z,99.90
2018-07-23T07:59:48.943Z,99.90
2018-07-23T08:02:17.242Z,99.90
2018-07-23T08:04:45.708Z,99.90
2018-07-23T08:07:14.523Z,99.90
2018-07-23T08:09:43.075Z,99.90
2018-07-23T08:12:12.192Z,99.90
2018-07-23T08:14:40.482Z,99.90
2018-07-23T08:17:08.807Z,99.90
2018-07-23T08:19:38.151Z,99.90
2018-07-23T08:22:08.938Z,99.90
2018-07-23T08:24:38.142Z,99.90
2018-07-23T08:27:06.917Z,99.90
2018-07-23T08:29:35.186Z,99.90
2018-07-23T08:32:04.466Z,99.90
2018-07-23T08:34:32.820Z,99.90
2018-07-23T08:37:01.162Z,99.50
2018-07-23T08:39:29.763Z,97.80
2018-07-23T08:41:58.041Z,97.60
2018-07-23T08:44:26.307Z,96.40
2018-07-23T08:46:54.610Z,96.00
2018-07-23T08:49:22.880Z,95.20
2018-07-23T08:51:52.677Z,93.00
2018-07-23T08:54:21.005Z,92.10
2018-07-23T08:56:49.298Z,92.40
2018-07-23T08:59:17.723Z,91.60
2018-07-23T09:01:46.013Z,89.20
2018-07-23T09:04:15.328Z,89.30
2018-07-23T09:06:44.400Z,86.30
2018-07-23T09:11:40.971Z,81.80
2018-07-23T09:14:09.314Z,80.00
2018-07-23T09:16:38.226Z,81.70
2018-07-23T09:19:06.678Z,79.90
2018-07-23T09:24:03.515Z,80.90
2018-07-23T09:26:31.799Z,81.00
2018-07-23T09:29:01.025Z,79.40
2018-07-23T09:31:29.493Z,78.00
2018-07-23T09:33:57.770Z,74.40
2018-07-23T09:36:26.059Z,75.90
2018-07-23T09:38:54.359Z,73.80
2018-07-23T09:41:22.661Z,72.40
2018-07-23T09:43:50.899Z,72.70
2018-07-23T09:46:19.259Z,70.80
2018-07-23T09:48:47.734Z,71.60
2018-07-23T09:51:16.695Z,70.00
2018-07-23T09:53:46.748Z,69.10
2018-07-23T09:56:15.158Z,68.70
2018-07-23T09:58:43.813Z,69.20
2018-07-23T10:01:14.241Z,68.40
2018-07-23T10:03:43.299Z,67.10
2018-07-23T10:06:11.577Z,67.20
2018-07-23T10:08:39.906Z,66.70
2018-07-23T10:11:08.242Z,65.30
2018-07-23T10:13:36.556Z,64.60
2018-07-23T10:16:04.822Z,66.00
2018-07-23T10:18:33.118Z,66.50
2018-07-23T10:21:02.505Z,66.60
2018-07-23T10:23:30.862Z,64.80
2018-07-23T10:25:59.227Z,66.00
2018-07-23T10:28:27.490Z,65.70
2018-07-23T10:30:57.012Z,67.20
2018-07-23T10:33:25.739Z,67.00
2018-07-23T10:35:54.066Z,64.20
2018-07-23T10:38:23.234Z,63.80
2018-07-23T10:40:51.535Z,68.20
2018-07-23T10:43:19.788Z,73.00
2018-07-23T10:45:48.029Z,75.10
2018-07-23T10:48:16.359Z,77.50
2018-07-23T10:50:44.606Z,79.30
2018-07-23T10:53:14.149Z,81.60
2018-07-23T10:55:42.441Z,78.30
2018-07-23T10:58:10.714Z,73.60
2018-07-23T11:00:38.982Z,71.80
2018-07-23T11:03:07.274Z,69.80
2018-07-23T11:05:35.498Z,70.50
2018-07-23T11:08:04.612Z,71.10
2018-07-23T11:10:32.894Z,73.70
2018-07-23T11:13:01.993Z,73.30
2018-07-23T11:15:31.193Z,74.50
2018-07-23T11:17:59.507Z,75.80
2018-07-23T11:20:27.793Z,77.00
2018-07-23T11:22:56.071Z,78.00
2018-07-23T11:25:39.087Z,78.80
2018-07-23T11:27:53.377Z,79.20
2018-07-23T11:30:22.167Z,77.90
2018-07-23T11:32:50.438Z,79.10
2018-07-23T11:35:18.723Z,79.40
2018-07-23T11:37:47.311Z,81.50
2018-07-23T11:40:15.618Z,79.90
2018-07-23T11:42:44.329Z,79.20
2018-07-23T11:45:12.929Z,80.60
2018-07-23T11:47:41.238Z,80.10
2018-07-23T11:50:09.609Z,79.80
2018-07-23T11:52:37.893Z,81.70
2018-07-23T11:55:06.738Z,79.60
2018-07-23T11:57:34.996Z,82.30
2018-07-23T12:00:03.716Z,80.70
2018-07-23T12:02:32.069Z,78.50
2018-07-23T12:05:00.350Z,79.60
2018-07-23T12:07:28.653Z,81.60
2018-07-23T12:09:56.905Z,82.00
2018-07-23T12:15:00.156Z,79.80
2018-07-23T12:17:28.535Z,78.90
2018-07-23T12:19:56.721Z,80.40
2018-07-23T12:22:25.006Z,81.10
2018-07-23T12:24:53.273Z,79.80
2018-07-23T12:27:21.551Z,78.80
2018-07-23T12:29:49.830Z,78.60
2018-07-23T12:32:19.680Z,79.50
2018-07-23T12:34:48.358Z,79.10
2018-07-23T12:37:16.690Z,80.10
2018-07-23T12:39:45.476Z,77.50
2018-07-23T12:42:13.758Z,76.40
2018-07-23T12:44:42.046Z,77.10
2018-07-23T12:47:10.355Z,78.40
2018-07-23T12:49:38.622Z,78.00
2018-07-23T12:52:06.869Z,79.20
2018-07-23T12:54:36.002Z,80.00
2018-07-23T12:57:04.329Z,75.80
2018-07-23T12:59:33.174Z,77.80
2018-07-23T13:02:01.986Z,78.40
2018-07-23T13:04:30.969Z,78.70
2018-07-23T13:06:59.224Z,78.80
2018-07-23T13:09:27.506Z,77.90
2018-07-23T13:11:55.766Z,77.30
2018-07-23T13:14:24.702Z,76.10
2018-07-23T13:16:53.186Z,76.00
2018-07-23T13:21:49.565Z,76.10
2018-07-23T13:24:17.850Z,76.60
2018-07-23T13:26:46.101Z,77.90
2018-07-23T13:31:42.570Z,76.60
2018-07-23T13:34:10.881Z,77.20
2018-07-23T13:36:39.148Z,74.30
2018-07-23T13:39:09.656Z,76.70
2018-07-23T13:41:37.923Z,77.60
2018-07-23T13:44:06.222Z,77.20
2018-07-23T13:46:34.481Z,77.60
2018-07-23T13:49:02.818Z,80.10
2018-07-23T13:51:31.118Z,78.10
2018-07-23T13:53:59.454Z,78.10
2018-07-23T13:56:27.806Z,77.70
2018-07-23T13:58:56.798Z,76.80
2018-07-23T14:01:25.154Z,75.90
2018-07-23T14:03:53.461Z,76.30
2018-07-23T14:06:22.458Z,76.90
2018-07-23T14:08:50.990Z,74.90
2018-07-23T14:11:19.525Z,77.50
2018-07-23T14:13:47.847Z,76.40
2018-07-23T14:16:16.123Z,76.70
2018-07-23T14:18:44.427Z,75.60
2018-07-23T14:23:40.729Z,77.10
2018-07-23T14:26:09.981Z,75.10
2018-07-23T14:28:39.163Z,74.60
2018-07-23T14:31:07.545Z,76.70
2018-07-23T14:33:35.810Z,76.00
2018-07-23T14:36:05.866Z,76.60
2018-07-23T14:38:40.512Z,76.40
2018-07-23T14:41:10.461Z,76.40
2018-07-23T14:43:39.126Z,74.90
2018-07-23T14:46:07.418Z,74.10
2018-07-23T14:48:36.398Z,75.30
2018-07-23T14:51:04.755Z,76.00
2018-07-23T14:53:33.060Z,75.10
2018-07-23T14:56:01.976Z,74.00
2018-07-23T14:58:31.468Z,74.10
2018-07-23T15:01:01.174Z,72.50
2018-07-23T15:03:30.430Z,73.00
2018-07-23T15:05:58.726Z,72.30
2018-07-23T15:08:28.053Z,74.40
2018-07-23T15:10:56.577Z,72.80
2018-07-23T15:13:25.965Z,73.10
2018-07-23T15:18:23.987Z,73.20
2018-07-23T15:20:52.286Z,72.40
2018-07-23T15:23:21.617Z,71.60
2018-07-23T15:25:51.307Z,71.20
2018-07-23T15:28:20.202Z,70.40
2018-07-23T15:30:48.457Z,70.40
2018-07-23T15:33:16.722Z,70.80
2018-07-23T15:35:45.005Z,71.20
2018-07-23T15:38:13.256Z,70.00
2018-07-23T15:40:41.546Z,70.50
2018-07-23T15:43:09.813Z,71.60
2018-07-23T15:45:38.196Z,71.90
2018-07-23T15:48:06.605Z,70.50
2018-07-23T15:53:02.871Z,71.70
2018-07-23T15:55:31.125Z,71.50
2018-07-23T15:57:59.405Z,71.20
2018-07-23T16:00:28.217Z,70.20
2018-07-23T16:02:56.497Z,71.60
2018-07-23T16:05:24.913Z,72.70
2018-07-23T16:07:53.757Z,72.80
2018-07-23T16:10:22.648Z,73.00
2018-07-23T16:12:51.313Z,72.90
2018-07-23T16:15:19.634Z,72.50
2018-07-23T16:17:48.017Z,72.90
2018-07-23T16:20:16.317Z,73.80
2018-07-23T16:22:44.578Z,73.80
2018-07-23T16:25:12.849Z,73.80
2018-07-23T16:27:41.118Z,74.10
2018-07-23T16:30:11.014Z,74.40
2018-07-23T16:32:39.311Z,73.60
2018-07-23T16:35:09.685Z,73.50
2018-07-23T16:37:39.517Z,74.20
2018-07-23T16:40:09.643Z,74.50
2018-07-23T16:42:37.946Z,74.30
2018-07-23T16:45:06.252Z,75.60
2018-07-23T16:47:34.494Z,74.60
2018-07-23T16:50:02.769Z,75.20
2018-07-23T16:52:31.631Z,75.50
2018-07-23T16:54:59.893Z,75.70
2018-07-23T16:57:28.159Z,76.20
2018-07-23T16:59:56.488Z,77.60
2018-07-23T17:02:24.879Z,78.40
2018-07-23T17:04:53.141Z,79.00
2018-07-23T17:07:21.369Z,79.40
2018-07-23T17:09:49.718Z,80.30
2018-07-23T17:12:17.962Z,81.10
2018-07-23T17:14:46.472Z,80.70
2018-07-23T17:17:15.713Z,81.00
2018-07-23T17:19:45.283Z,80.90
2018-07-23T17:22:13.543Z,81.50
2018-07-23T17:24:43.153Z,81.70
2018-07-23T17:29:40.033Z,81.50
2018-07-23T17:32:08.333Z,80.40
2018-07-23T17:34:37.582Z,80.10
2018-07-23T17:37:05.857Z,80.20
2018-07-23T17:39:34.129Z,80.50
2018-07-23T17:42:02.422Z,79.40
2018-07-23T17:44:30.690Z,79.60
2018-07-23T17:49:27.695Z,80.20
2018-07-23T17:51:56.021Z,80.20
2018-07-23T17:54:25.418Z,80.90
2018-07-23T17:56:54.941Z,80.00
2018-07-23T17:59:23.213Z,80.80
2018-07-23T18:01:51.978Z,81.40
2018-07-23T18:04:20.290Z,81.10
2018-07-23T18:09:16.704Z,81.50
2018-07-23T18:11:45.732Z,81.30
2018-07-23T18:14:14.047Z,81.50
2018-07-23T18:16:42.401Z,82.20
2018-07-23T18:19:10.706Z,82.30
2018-07-23T18:21:39.135Z,83.10
2018-07-23T18:24:07.542Z,83.20
2018-07-23T18:26:36.165Z,83.50
2018-07-23T18:29:04.625Z,83.80
2018-07-23T18:31:32.964Z,83.90
2018-07-23T18:34:01.729Z,84.10
2018-07-23T18:36:29.999Z,84.90
2018-07-23T18:38:58.246Z,85.90
2018-07-23T18:41:26.541Z,85.20
2018-07-23T18:43:54.793Z,85.40
2018-07-23T18:46:23.325Z,85.80
2018-07-23T18:49:32.734Z,86.00
2018-07-23T18:52:02.166Z,86.20
2018-07-23T18:54:31.581Z,86.70
2018-07-23T18:57:02.308Z,87.10
2018-07-23T18:59:31.508Z,87.50
2018-07-23T19:02:00.486Z,87.30
2018-07-23T19:04:28.821Z,88.00
2018-07-23T19:06:57.080Z,88.50
2018-07-23T19:09:26.130Z,88.60
2018-07-23T19:11:55.737Z,89.00
2018-07-23T19:14:24.079Z,89.30
2018-07-23T19:19:21.587Z,90.00
2018-07-23T19:21:49.858Z,90.20
2018-07-23T19:24:18.134Z,90.50
2018-07-23T19:26:46.434Z,90.70
2018-07-23T19:29:14.682Z,90.90
2018-07-23T19:31:42.962Z,91.10
2018-07-23T19:34:11.617Z,91.30
2018-07-23T19:36:40.918Z,91.40
2018-07-23T19:39:12.001Z,91.50
2018-07-23T19:41:40.886Z,91.60
2018-07-23T19:44:09.476Z,91.80
2018-07-23T19:46:37.746Z,91.80
2018-07-23T19:49:06.186Z,92.00
2018-07-23T19:51:34.640Z,92.20
2018-07-23T19:54:02.994Z,92.60
2018-07-23T19:56:31.321Z,92.70
2018-07-23T19:58:59.605Z,93.20
2018-07-23T20:01:27.893Z,93.30
2018-07-23T20:03:56.137Z,96.30
2018-07-23T20:06:25.958Z,97.30
2018-07-23T20:08:55.026Z,99.90
2018-07-23T20:11:24.978Z,99.90
2018-07-23T20:13:53.390Z,99.90
2018-07-23T20:16:22.058Z,99.90
2018-07-23T20:18:50.336Z,99.90
2018-07-23T20:21:18.667Z,99.90
2018-07-23T20:23:46.910Z,99.90
2018-07-23T20:26:15.441Z,99.90
2018-07-23T20:28:44.305Z,99.90
2018-07-23T20:31:13.033Z,99.90
2018-07-23T20:33:41.278Z,99.90
2018-07-23T20:36:09.555Z,99.90
2018-07-23T20:38:37.841Z,99.90
2018-07-23T20:41:06.547Z,99.90
2018-07-23T20:43:34.849Z,99.90
2018-07-23T20:46:03.383Z,99.90
2018-07-23T20:48:32.229Z,99.90
2018-07-23T20:51:00.778Z,99.90
2018-07-23T20:53:29.950Z,99.90
2018-07-23T20:55:58.193Z,99.90
2018-07-23T20:58:26.442Z,99.90
2018-07-23T21:00:54.741Z,99.90
2018-07-23T21:03:22.991Z,99.90
2018-07-23T21:05:51.310Z,99.90
2018-07-23T21:08:20.810Z,99.90
2018-07-23T21:10:49.109Z,99.90
2018-07-23T21:13:18.502Z,99.90
2018-07-23T21:15:46.796Z,99.90
2018-07-23T21:18:15.070Z,99.90
2018-07-23T21:23:11.352Z,99.90
2018-07-23T21:25:39.603Z,99.90
2018-07-23T21:28:07.872Z,99.90
2018-07-23T21:30:36.565Z,99.90
2018-07-23T21:33:04.908Z,99.90
2018-07-23T21:35:33.179Z,99.90
2018-07-23T21:38:02.454Z,99.90
2018-07-23T21:40:30.722Z,99.90
2018-07-23T21:42:58.998Z,99.90
2018-07-23T21:45:27.233Z,99.90
2018-07-23T21:47:55.486Z,99.90
2018-07-23T21:50:23.754Z,99.90
2018-07-23T21:52:52.025Z,99.90
2018-07-23T21:55:20.591Z,99.90
2018-07-23T21:57:49.210Z,99.90
2018-07-23T22:00:18.238Z,99.90
2018-07-23T22:02:47.524Z,99.90
2018-07-23T22:05:15.772Z,99.90
2018-07-23T22:07:44.913Z,99.90
2018-07-23T22:12:41.214Z,99.90
2018-07-23T22:15:10.682Z,99.90
2018-07-23T22:17:39.960Z,99.90
2018-07-23T22:20:08.905Z,99.90
2018-07-23T22:22:37.178Z,99.90
2018-07-23T22:25:05.561Z,99.90
2018-07-23T22:27:33.854Z,99.90
2018-07-23T22:30:02.143Z,99.90
2018-07-23T22:32:30.444Z,99.90
2018-07-23T22:37:26.741Z,99.90
2018-07-23T22:39:55.417Z,99.90
2018-07-23T22:42:23.705Z,99.90
2018-07-23T22:44:52.007Z,99.90
2018-07-23T22:47:20.297Z,99.90
2018-07-23T22:49:48.734Z,99.90
2018-07-23T22:52:17.008Z,99.90
2018-07-23T22:54:45.265Z,99.90
2018-07-23T22:57:14.375Z,99.90
2018-07-23T22:59:43.473Z,99.90
2018-07-23T23:02:12.331Z,99.90
2018-07-23T23:04:40.585Z,99.90
2018-07-23T23:07:08.841Z,99.90
2018-07-23T23:09:37.132Z,99.90
2018-07-23T23:12:05.543Z,99.90
2018-07-23T23:14:34.962Z,99.90
2018-07-23T23:17:03.301Z,99.90
2018-07-23T23:19:32.525Z,99.90
2018-07-23T23:22:00.834Z,99.90
2018-07-23T23:24:29.197Z,99.90
2018-07-23T23:26:57.457Z,99.90
2018-07-23T23:31:53.739Z,99.90
2018-07-23T23:34:22.026Z,99.90
2018-07-23T23:36:50.335Z,99.90
2018-07-23T23:39:18.822Z,99.90
2018-07-23T23:41:47.186Z,99.90
2018-07-23T23:44:15.472Z,99.90
2018-07-23T23:46:44.121Z,99.90
2018-07-23T23:49:12.455Z,99.90
2018-07-23T23:51:40.732Z,99.90
2018-07-23T23:54:09.073Z,99.90
2018-07-23T23:56:37.337Z,99.90
2018-07-23T23:59:05.650Z,99.90
